Abbotsford, British Columbia

3:45 PM PST on January 30, 2015 (GMT -0800)
Abbotsford | Change Station
CLOSE
Current Station
Airport
Location: Abbotsford,
Elevation: 194 ft
Nearby Weather Stations

Elev 194 ft 49.03 °N, 122.38 °W | Updated 45 minutes ago

Mostly Cloudy
Mostly Cloudy
52 °F
Feels Like 52 °F
N
4
Wind Variable Wind from SSW

Today
High -- | Low -- °F
--% Chance of Precip.
Yesterday
High -- | Low -- °F
Precip. -- in
7:42 AM 5:03 PM
Waxing Gibbous, 86% visible
Pressure 30.28 in
Visibility 30.0 miles
Clouds Few 8000 ft
Mostly Cloudy 12000 ft
Mostly Cloudy 20000 ft
Dew Point 39 °F
Humidity 62%
Rainfall 0.00 in
Snow Depth Not available.
UV 0 out of 12
Pollen Not available.
Air Quality Not available.
Flu Activity Not available.
METAR CYXX 302300Z 21003KT 160V230 30SM FEW080 BKN120 BKN200 11/04 A3027 RMK AC2AC4CI1 SLP253

More Conditions Fewer Conditions

Pressure 30.28 in
Visibility 30.0 miles
Clouds Few 8000 ft
Mostly Cloudy 12000 ft
Mostly Cloudy 20000 ft
Dew Point 39 °F
Humidity 62%
Rainfall 0.00 in
Snow Depth Not available.
UV 0 out of 12
Pollen Not available.
Air Quality Not available.
Flu Activity Not available.
METAR CYXX 302300Z 21003KT 160V230 30SM FEW080 BKN120 BKN200 11/04 A3027 RMK AC2AC4CI1 SLP253

More Conditions Fewer Conditions

10-Day Weather Forecast

Almanac

Astronomy

Jan. 30, 2015 Rise Set
Actual Time
Civil Twilight
Nautical Twilight
Astronomical Twilight
Moon
Length of Visible Light
Length of Day
Tomorrow will be .
, % of the Moon is Illuminated

Today's Extremes

Country Highs Country Lows

Community

WunderPhotos

Upload Photos

1,791,934 photos uploaded!

WunderBlogs® & News

Nearby

Air Quality

  Air Quality AQ Index Pollutant
Not available.

Snow Depth

Station Depth Elevation

Earthquake Activity

City Distance Mag. Time & Date
Minimum magnitude displayed is 2.5.

Coastal Water Temperatures

Place Temperature

Nearby Weather Stations